Time;durP1;ratioP1;P1;durP2;ratioP2;P2;SDS_P1;SDS_P2;PMS_P1;PMS_P2;Temp;Humidity;BMP_temperature;BMP_pressure;BME280_temperature;BME280_humidity;BME280_pressure;Samples;Min_cycle;Max_cycle;Signal;HPM_P1;HPM_P2
2022/04/05 00:00:49;;;;;;;10.30;6.90;;;;;;;2.72;64.00;95344.79;107980;1271;38781;-73
2022/04/05 00:03:19;;;;;;;9.50;6.70;;;;;;;2.71;63.96;95352.00;108078;1271;44693;-73
2022/04/05 00:05:50;;;;;;;8.80;5.50;;;;;;;2.73;63.75;95353.69;108057;1271;40036;-73
2022/04/05 00:08:21;;;;;;;8.20;5.00;;;;;;;2.73;63.95;95344.68;108082;1271;41026;-73
2022/04/05 00:10:52;;;;;;;10.00;5.40;;;;;;;2.69;64.12;95336.21;108080;1270;43433;-73
2022/04/05 00:13:23;;;;;;;7.50;5.20;;;;;;;2.67;64.20;95337.49;108105;1271;29414;-74
2022/04/05 00:15:54;;;;;;;9.10;6.40;;;;;;;2.67;64.36;95343.05;108073;1271;26991;-73
2022/04/05 00:18:25;;;;;;;10.30;6.90;;;;;;;2.66;64.68;95339.10;108119;1270;42854;-74
2022/04/05 00:20:56;;;;;;;10.90;6.40;;;;;;;2.62;64.78;95339.47;108122;1271;31989;-73
2022/04/05 00:23:27;;;;;;;11.50;8.20;;;;;;;2.60;65.18;95347.27;108044;1270;40987;-73
2022/04/05 00:25:57;;;;;;;7.60;5.50;;;;;;;2.57;65.39;95346.12;108103;1271;26571;-73
2022/04/05 00:28:29;;;;;;;6.80;4.60;;;;;;;2.56;65.73;95339.37;108140;1271;28768;-73
2022/04/05 00:30:59;;;;;;;8.70;5.00;;;;;;;2.58;65.59;95347.84;108050;1270;37310;-74
2022/04/05 00:33:30;;;;;;;7.10;4.90;;;;;;;2.57;66.03;95335.60;108004;1271;45728;-74
2022/04/05 00:36:01;;;;;;;8.90;5.80;;;;;;;2.56;66.20;95342.92;107911;1271;239938;-73
2022/04/05 00:38:32;;;;;;;6.80;5.10;;;;;;;2.52;66.81;95342.48;108098;1271;32202;-73
2022/04/05 00:41:03;;;;;;;8.60;6.40;;;;;;;2.50;67.18;95347.70;108061;1268;30703;-73
2022/04/05 00:43:34;;;;;;;5.60;4.30;;;;;;;2.49;67.45;95335.83;108080;1270;42618;-74
2022/04/05 00:46:04;;;;;;;13.00;7.70;;;;;;;2.49;67.54;95330.60;108116;1271;40767;-73
2022/04/05 00:48:49;;;;;;;8.60;5.80;;;;;;;2.46;67.58;95327.67;108103;1271;43022;-73
2022/04/05 00:51:22;;;;;;;9.50;6.30;;;;;;;2.45;67.80;95320.92;108080;1269;40023;-73
2022/04/05 00:53:56;;;;;;;11.10;7.50;;;;;;;2.44;68.00;95319.72;108119;1271;27910;-73
2022/04/05 00:56:27;;;;;;;8.40;6.10;;;;;;;2.41;68.24;95315.59;108099;1271;31058;-74
2022/04/05 00:59:01;;;;;;;8.00;5.80;;;;;;;2.41;68.16;95313.27;108092;1271;40652;-73
2022/04/05 01:01:33;;;;;;;10.30;7.50;;;;;;;2.42;68.55;95310.61;107998;1271;42037;-74
2022/04/05 01:04:06;;;;;;;8.70;6.70;;;;;;;2.39;68.73;95307.92;108015;1271;43789;-74
2022/04/05 01:06:45;;;;;;;9.60;7.40;;;;;;;2.36;68.97;95306.77;108030;1270;40556;-73
2022/04/05 01:09:16;;;;;;;10.00;6.60;;;;;;;2.36;69.06;95306.52;108066;1271;29982;-73
2022/04/05 01:11:47;;;;;;;10.20;6.20;;;;;;;2.35;69.41;95308.44;108027;1270;38326;-73
2022/04/05 01:14:19;;;;;;;7.30;5.60;;;;;;;2.35;69.77;95289.46;108083;1271;32996;-74
2022/04/05 01:16:50;;;;;;;9.90;7.40;;;;;;;2.33;69.70;95295.26;108119;1270;28649;-73
2022/04/05 01:19:20;;;;;;;7.40;5.60;;;;;;;2.31;70.06;95292.02;108119;1270;31659;-74
2022/04/05 01:21:51;;;;;;;6.40;5.40;;;;;;;2.29;70.94;95295.15;108097;1271;41999;-73
2022/04/05 01:24:22;;;;;;;10.40;8.00;;;;;;;2.26;71.32;95282.17;108129;1270;43103;-73
2022/04/05 01:26:56;;;;;;;8.60;6.60;;;;;;;2.23;71.71;95282.93;108104;1270;49603;-73
2022/04/05 01:29:29;;;;;;;10.60;7.30;;;;;;;2.20;71.94;95277.55;108108;1270;39353;-73
2022/04/05 01:32:03;;;;;;;10.70;7.80;;;;;;;2.18;71.99;95279.79;108135;1271;42062;-74
2022/04/05 01:34:36;;;;;;;8.60;7.10;;;;;;;2.21;71.89;95268.30;108054;1270;33122;-74
2022/04/05 01:37:09;;;;;;;10.10;7.10;;;;;;;2.23;72.15;95268.40;108075;1270;34967;-74
2022/04/05 01:39:43;;;;;;;7.30;5.50;;;;;;;2.21;72.20;95254.95;108014;1271;31481;-73
2022/04/05 01:42:16;;;;;;;10.10;6.50;;;;;;;2.21;72.11;95249.37;108161;1270;44586;-74
2022/04/05 01:44:47;;;;;;;6.70;5.40;;;;;;;2.25;72.13;95248.07;108046;1270;42815;-74
2022/04/05 01:47:20;;;;;;;7.20;4.90;;;;;;;2.25;72.07;95247.29;108055;1270;44699;-73
2022/04/05 01:49:51;;;;;;;6.80;5.10;;;;;;;2.25;72.38;95245.20;108131;1270;41096;-73
2022/04/05 01:52:22;;;;;;;8.20;6.00;;;;;;;2.25;72.72;95233.85;108083;1270;40458;-74
2022/04/05 01:54:53;;;;;;;7.60;5.50;;;;;;;2.24;72.57;95238.55;108032;1270;42276;-74
2022/04/05 01:57:23;;;;;;;7.70;5.80;;;;;;;2.20;72.73;95222.54;108046;1269;43771;-74
2022/04/05 01:59:54;;;;;;;10.50;5.80;;;;;;;2.16;72.86;95235.77;108140;1270;29973;-74
2022/04/05 02:02:25;;;;;;;8.20;6.40;;;;;;;2.16;73.31;95231.02;108081;1270;42229;-74
2022/04/05 02:04:56;;;;;;;8.00;4.90;;;;;;;2.16;73.33;95239.59;108101;1270;41893;-73
2022/04/05 02:07:29;;;;;;;8.00;6.10;;;;;;;2.17;73.37;95235.56;108051;1270;40505;-74
2022/04/05 02:09:59;;;;;;;7.60;6.10;;;;;;;2.19;73.34;95247.33;108108;1270;33484;-75
2022/04/05 02:12:30;;;;;;;7.70;6.00;;;;;;;2.20;73.32;95250.20;108052;1270;42972;-74
2022/04/05 02:15:01;;;;;;;7.30;4.80;;;;;;;2.21;73.62;95239.11;108015;1271;30803;-74
2022/04/05 02:17:32;;;;;;;6.10;4.80;;;;;;;2.22;73.66;95253.33;108066;1270;40951;-75
2022/04/05 02:20:03;;;;;;;8.10;6.60;;;;;;;2.24;73.61;95240.95;108094;1270;38282;-74
2022/04/05 02:22:34;;;;;;;7.00;5.20;;;;;;;2.23;73.71;95247.52;108079;1270;42311;-74
2022/04/05 02:25:12;;;;;;;7.30;4.60;;;;;;;2.23;73.83;95242.20;108075;1270;42033;-74
2022/04/05 02:27:47;;;;;;;6.20;4.00;;;;;;;2.19;74.06;95242.05;108152;1270;31052;-74
2022/04/05 02:30:21;;;;;;;7.10;5.20;;;;;;;2.17;74.50;95246.59;108055;1271;37760;-73
2022/04/05 02:32:51;;;;;;;7.00;4.80;;;;;;;2.15;74.73;95241.83;108071;1270;42336;-74
2022/04/05 02:35:22;;;;;;;5.90;4.40;;;;;;;2.13;74.98;95243.35;107894;1273;39547;-74
2022/04/05 02:37:53;;;;;;;9.30;4.30;;;;;;;2.11;75.17;95245.00;108066;1270;43103;-74
2022/04/05 02:40:24;;;;;;;7.30;6.00;;;;;;;2.07;75.90;95231.87;108080;1270;27518;-74
2022/04/05 02:42:55;;;;;;;6.70;4.40;;;;;;;2.05;76.34;95237.41;108081;1270;40631;-74
2022/04/05 02:45:26;;;;;;;6.20;4.60;;;;;;;1.99;76.75;95237.62;108125;1270;46388;-74
2022/04/05 02:47:56;;;;;;;7.90;5.60;;;;;;;1.96;77.12;95240.77;108109;1270;42287;-74
2022/04/05 02:50:28;;;;;;;10.40;5.00;;;;;;;1.95;76.87;95238.31;108129;1270;52745;-74
2022/04/05 02:52:59;;;;;;;5.40;3.20;;;;;;;1.98;77.09;95233.70;108014;1271;26445;-74
2022/04/05 02:55:30;;;;;;;6.20;4.80;;;;;;;1.99;77.56;95233.44;108062;1270;30296;-75
2022/04/05 02:58:01;;;;;;;6.10;4.60;;;;;;;2.01;77.57;95224.13;108078;1270;44695;-74
2022/04/05 03:00:32;;;;;;;6.90;5.20;;;;;;;2.00;77.79;95225.91;108026;1270;41018;-74
2022/04/05 03:03:03;;;;;;;6.00;4.80;;;;;;;1.97;78.04;95221.55;108097;1270;41557;-74
2022/04/05 03:05:34;;;;;;;6.30;4.70;;;;;;;1.95;78.38;95219.28;108080;1270;42399;-74
2022/04/05 03:08:06;;;;;;;5.70;4.50;;;;;;;1.97;78.48;95221.19;108048;1270;40360;-74
2022/04/05 03:10:37;;;;;;;5.90;4.50;;;;;;;1.97;78.74;95210.36;108076;1271;28524;-74
2022/04/05 03:13:08;;;;;;;6.20;4.10;;;;;;;1.95;79.15;95208.73;108073;1270;47181;-74
2022/04/05 03:15:39;;;;;;;5.40;4.00;;;;;;;1.91;79.67;95201.05;108075;1270;44000;-74
2022/04/05 03:18:10;;;;;;;8.00;4.80;;;;;;;1.89;79.73;95209.20;108038;1270;41134;-74
2022/04/05 03:20:41;;;;;;;4.20;2.60;;;;;;;1.87;80.52;95200.48;108050;1270;45472;-74
2022/04/05 03:23:12;;;;;;;5.70;3.70;;;;;;;1.87;80.29;95220.08;108047;1270;30240;-74
2022/04/05 03:25:45;;;;;;;5.60;4.30;;;;;;;1.84;80.70;95212.37;108090;1270;42819;-74
2022/04/05 03:28:16;;;;;;;5.20;3.60;;;;;;;1.82;81.22;95213.45;108110;1270;41518;-74
2022/04/05 03:30:47;;;;;;;6.30;3.80;;;;;;;1.82;81.28;95219.36;108068;1270;40499;-74
2022/04/05 03:33:18;;;;;;;7.00;4.00;;;;;;;1.80;81.25;95211.15;108044;1270;38875;-74
2022/04/05 03:35:49;;;;;;;4.50;2.80;;;;;;;1.78;81.61;95215.38;108043;1270;53017;-74
2022/04/05 03:38:20;;;;;;;6.20;3.80;;;;;;;1.78;81.89;95213.77;108073;1270;32826;-74
2022/04/05 03:40:51;;;;;;;5.90;4.50;;;;;;;1.77;82.24;95210.77;108108;1270;32487;-74
2022/04/05 03:43:22;;;;;;;4.90;3.70;;;;;;;1.78;82.24;95213.19;108069;1270;32177;-74
2022/04/05 03:45:53;;;;;;;4.80;2.60;;;;;;;1.81;82.37;95211.98;108018;1271;50811;-74
2022/04/05 03:48:26;;;;;;;5.40;3.20;;;;;;;1.79;82.77;95212.98;108018;1270;39298;-74
2022/04/05 03:50:56;;;;;;;4.30;3.20;;;;;;;1.78;82.67;95218.36;108072;1269;42221;-74
2022/04/05 03:53:27;;;;;;;4.60;3.50;;;;;;;1.79;82.74;95220.03;108021;1273;32058;-74
2022/04/05 03:55:58;;;;;;;4.90;3.60;;;;;;;1.76;82.82;95224.67;108074;1270;31572;-74
2022/04/05 03:58:29;;;;;;;9.10;3.50;;;;;;;1.75;83.30;95230.20;108127;1270;28374;-74
2022/04/05 04:01:00;;;;;;;3.40;3.00;;;;;;;1.72;83.61;95232.67;108093;1270;40564;-74
2022/04/05 04:03:31;;;;;;;4.20;3.10;;;;;;;1.68;83.95;95231.64;107944;1273;41876;-74
2022/04/05 04:06:02;;;;;;;3.70;2.60;;;;;;;1.67;84.32;95221.02;108051;1270;44447;-74
2022/04/05 04:08:33;;;;;;;5.50;4.10;;;;;;;1.67;84.79;95208.59;108056;1270;33007;-73
2022/04/05 04:11:05;;;;;;;4.10;2.70;;;;;;;1.65;84.73;95219.46;108091;1270;29436;-73
2022/04/05 04:13:36;;;;;;;4.40;3.20;;;;;;;1.63;85.22;95225.98;108051;1270;38997;-73
2022/04/05 04:16:07;;;;;;;3.90;2.90;;;;;;;1.60;85.38;95222.80;108014;1270;35484;-74
2022/04/05 04:18:38;;;;;;;4.20;2.30;;;;;;;1.58;85.69;95212.66;108040;1270;38155;-74
2022/04/05 04:21:09;;;;;;;5.60;3.90;;;;;;;1.60;85.63;95209.05;108039;1270;43879;-74
2022/04/05 04:23:40;;;;;;;5.70;3.70;;;;;;;1.60;86.23;95214.38;108049;1270;31441;-74
2022/04/05 04:26:11;;;;;;;5.10;3.80;;;;;;;1.60;86.33;95209.00;108046;1270;49073;-74
2022/04/05 04:28:42;;;;;;;4.50;3.20;;;;;;;1.62;86.63;95221.54;108047;1270;44833;-74
2022/04/05 04:31:13;;;;;;;5.40;2.90;;;;;;;1.68;86.55;95205.84;108022;1270;33993;-73
2022/04/05 04:33:44;;;;;;;3.40;2.50;;;;;;;1.70;86.44;95203.40;108043;1270;28365;-74
2022/04/05 04:36:15;;;;;;;4.70;2.60;;;;;;;1.74;86.15;95218.77;108072;1270;36160;-74
2022/04/05 04:38:46;;;;;;;4.90;2.90;;;;;;;1.78;85.80;95224.63;108073;1270;31467;-74
2022/04/05 04:41:17;;;;;;;2.70;2.20;;;;;;;1.81;85.70;95214.18;108045;1270;43764;-74
2022/04/05 04:43:48;;;;;;;4.60;2.60;;;;;;;1.86;85.34;95224.35;108133;1270;40825;-74
2022/04/05 04:46:19;;;;;;;3.00;2.30;;;;;;;1.91;85.08;95223.31;108090;1267;34283;-74
2022/04/05 04:48:50;;;;;;;3.20;2.50;;;;;;;1.95;84.82;95224.77;108071;1270;39462;-74
2022/04/05 04:51:21;;;;;;;3.20;2.60;;;;;;;1.96;84.72;95220.20;108025;1270;38991;-74
2022/04/05 04:53:52;;;;;;;3.40;2.30;;;;;;;1.94;84.84;95212.44;108054;1270;35291;-74
2022/04/05 04:56:23;;;;;;;3.20;2.50;;;;;;;1.94;84.96;95228.07;108047;1270;46206;-74
2022/04/05 04:58:54;;;;;;;3.00;2.20;;;;;;;1.94;84.92;95228.07;108006;1270;28636;-74
2022/04/05 05:01:25;;;;;;;3.30;2.40;;;;;;;1.92;85.02;95227.91;108148;1270;27582;-74
2022/04/05 05:03:56;;;;;;;3.30;2.40;;;;;;;1.91;85.07;95236.85;108111;1270;43643;-73
2022/04/05 05:06:27;;;;;;;3.40;2.70;;;;;;;1.94;84.86;95243.54;108050;1270;41936;-74
2022/04/05 05:08:58;;;;;;;3.40;2.30;;;;;;;1.95;85.21;95242.13;108142;1270;32562;-74
2022/04/05 05:11:29;;;;;;;2.90;2.10;;;;;;;1.94;85.33;95231.58;108064;1271;35817;-74
2022/04/05 05:14:00;;;;;;;1.90;1.70;;;;;;;1.94;85.54;95241.66;108104;1270;31387;-75
2022/04/05 05:16:33;;;;;;;2.80;2.00;;;;;;;1.94;85.46;95243.90;108087;1270;37102;-74
2022/04/05 05:19:05;;;;;;;3.40;2.60;;;;;;;1.91;85.88;95249.45;108084;1270;38180;-74
2022/04/05 05:21:36;;;;;;;3.60;2.20;;;;;;;1.90;86.04;95253.99;108064;1270;34023;-74
2022/04/05 05:24:07;;;;;;;2.40;2.10;;;;;;;1.91;86.09;95253.83;108105;1270;42275;-73
2022/04/05 05:26:38;;;;;;;3.30;2.00;;;;;;;1.91;86.15;95256.77;108049;1270;37047;-74
2022/04/05 05:29:09;;;;;;;2.30;1.90;;;;;;;1.89;86.52;95254.14;108078;1270;33304;-74
2022/04/05 05:31:40;;;;;;;3.60;2.10;;;;;;;1.88;86.87;95254.98;107822;1273;43714;-74
2022/04/05 05:34:11;;;;;;;3.90;2.70;;;;;;;1.90;86.88;95264.23;108060;1270;45581;-74
2022/04/05 05:36:42;;;;;;;2.20;2.00;;;;;;;1.91;87.14;95261.98;108101;1270;28172;-73
2022/04/05 05:39:13;;;;;;;1.80;1.50;;;;;;;1.91;87.34;95262.67;108044;1270;41111;-74
2022/04/05 05:41:47;;;;;;;2.10;1.90;;;;;;;1.91;87.45;95264.17;108046;1270;41931;-74
2022/04/05 05:44:18;;;;;;;3.20;1.90;;;;;;;1.91;87.49;95274.37;108139;1268;42889;-74
2022/04/05 05:46:49;;;;;;;2.60;1.60;;;;;;;1.92;87.82;95263.45;108087;1270;40872;-74
2022/04/05 05:49:20;;;;;;;3.10;2.20;;;;;;;1.92;87.72;95262.40;108091;1270;35568;-74
2022/04/05 05:51:51;;;;;;;2.50;1.90;;;;;;;1.91;87.72;95269.36;108041;1270;43730;-73
2022/04/05 05:54:22;;;;;;;2.40;1.60;;;;;;;1.92;88.02;95257.91;108073;1270;44788;-73
2022/04/05 05:56:53;;;;;;;2.30;1.50;;;;;;;1.93;87.91;95273.08;108097;1270;34061;-73
2022/04/05 05:59:26;;;;;;;2.60;1.80;;;;;;;1.95;88.18;95271.82;108021;1270;39251;-74
2022/04/05 06:01:57;;;;;;;1.80;1.60;;;;;;;1.95;88.06;95276.36;108113;1270;38893;-74
2022/04/05 06:04:28;;;;;;;2.40;1.70;;;;;;;1.96;88.16;95271.61;108027;1273;37598;-73
2022/04/05 06:06:59;;;;;;;2.90;1.40;;;;;;;1.96;88.30;95278.77;108102;1271;29499;-74
2022/04/05 06:09:31;;;;;;;1.90;1.60;;;;;;;1.94;88.44;95282.95;108098;1270;31814;-74
2022/04/05 06:12:02;;;;;;;2.90;2.00;;;;;;;1.93;88.86;95282.33;108035;1268;36915;-73
2022/04/05 06:14:32;;;;;;;1.50;1.20;;;;;;;1.92;88.94;95286.77;108019;1270;40844;-73
2022/04/05 06:17:04;;;;;;;2.50;2.10;;;;;;;1.93;89.21;95283.05;108050;1270;43904;-74
2022/04/05 06:19:35;;;;;;;1.90;1.60;;;;;;;1.94;89.33;95271.29;108124;1270;30391;-74
2022/04/05 06:22:06;;;;;;;1.80;1.50;;;;;;;1.95;89.37;95291.89;107961;1271;41714;-74
2022/04/05 06:24:38;;;;;;;1.40;1.00;;;;;;;1.95;89.32;95294.66;108077;1270;34255;-73
2022/04/05 06:27:09;;;;;;;2.20;1.60;;;;;;;1.98;89.13;95289.77;108116;1270;31914;-73
2022/04/05 06:29:40;;;;;;;1.20;0.90;;;;;;;2.02;89.08;95301.96;108020;1269;44629;-73
2022/04/05 06:32:12;;;;;;;1.80;0.90;;;;;;;2.06;89.08;95301.02;108021;1268;45125;-73
2022/04/05 06:34:42;;;;;;;1.20;1.00;;;;;;;2.08;89.10;95302.65;108108;1269;27007;-73
2022/04/05 06:37:14;;;;;;;1.60;1.50;;;;;;;2.07;89.13;95303.95;107997;1270;41694;-73
2022/04/05 06:39:44;;;;;;;2.20;1.70;;;;;;;2.09;89.27;95298.89;108050;1270;44800;-73
2022/04/05 06:42:16;;;;;;;1.70;1.30;;;;;;;2.12;88.78;95299.80;108074;1270;44230;-73
2022/04/05 06:44:47;;;;;;;1.70;1.50;;;;;;;2.17;88.83;95303.95;108050;1268;49474;-73
2022/04/05 06:47:18;;;;;;;2.30;1.00;;;;;;;2.20;88.71;95301.96;108040;1270;40781;-73
2022/04/05 06:49:49;;;;;;;1.50;1.20;;;;;;;2.21;88.73;95311.02;108084;1270;45072;-74
2022/04/05 06:52:20;;;;;;;0.90;0.80;;;;;;;2.24;88.67;95306.31;108016;1270;42871;-73
2022/04/05 06:54:51;;;;;;;1.00;0.90;;;;;;;2.26;88.85;95312.73;108078;1270;33672;-73
2022/04/05 06:57:22;;;;;;;1.40;1.10;;;;;;;2.26;88.66;95310.78;108040;1270;42905;-74
2022/04/05 06:59:54;;;;;;;1.90;1.10;;;;;;;2.27;88.65;95315.86;108143;1270;26400;-73
2022/04/05 07:02:25;;;;;;;2.20;1.50;;;;;;;2.28;88.70;95310.00;107973;1273;37361;-73
2022/04/05 07:04:56;;;;;;;1.70;1.10;;;;;;;2.31;88.79;95311.84;108169;1269;42318;-73
2022/04/05 07:07:27;;;;;;;1.90;1.40;;;;;;;2.33;88.74;95310.64;108112;1269;45440;-73
2022/04/05 07:09:58;;;;;;;1.60;1.30;;;;;;;2.33;88.77;95313.61;108148;1270;35383;-73
2022/04/05 07:12:30;;;;;;;2.00;1.30;;;;;;;2.37;88.58;95327.48;108117;1270;39771;-73
2022/04/05 07:15:01;;;;;;;1.50;1.20;;;;;;;2.37;88.49;95309.74;107973;1271;44749;-74
2022/04/05 07:17:32;;;;;;;1.10;1.00;;;;;;;2.38;88.54;95317.45;108112;1270;33934;-74
2022/04/05 07:20:04;;;;;;;1.80;1.00;;;;;;;2.39;88.79;95318.13;108013;1271;41127;-73
2022/04/05 07:22:35;;;;;;;1.80;1.30;;;;;;;2.38;88.74;95324.40;108079;1270;43885;-73
2022/04/05 07:25:07;;;;;;;1.40;1.10;;;;;;;2.42;88.75;95321.55;108090;1270;31597;-73
2022/04/05 07:27:38;;;;;;;3.00;1.50;;;;;;;2.45;88.81;95322.39;108100;1270;40989;-73
2022/04/05 07:30:11;;;;;;;1.50;1.40;;;;;;;2.49;88.76;95329.40;108075;1270;43105;-73
2022/04/05 07:32:45;;;;;;;1.30;1.20;;;;;;;2.57;88.69;95327.70;108102;1269;29470;-73
2022/04/05 07:35:17;;;;;;;2.10;1.50;;;;;;;2.59;88.82;95329.17;108073;1269;42644;-73
2022/04/05 07:37:49;;;;;;;2.20;1.50;;;;;;;2.59;88.59;95337.13;108075;1270;32910;-74
2022/04/05 07:40:20;;;;;;;2.50;1.00;;;;;;;2.65;88.63;95336.02;108091;1270;43369;-73
2022/04/05 07:42:51;;;;;;;0.90;0.70;;;;;;;2.71;88.49;95335.10;108030;1270;66655;-74
2022/04/05 07:45:23;;;;;;;4.00;1.40;;;;;;;2.69;88.24;95339.23;108092;1270;33489;-74
2022/04/05 07:47:54;;;;;;;2.40;1.50;;;;;;;2.75;88.39;95340.70;108094;1270;55716;-73
2022/04/05 07:50:25;;;;;;;1.30;1.10;;;;;;;2.81;88.32;95337.56;108146;1270;28738;-73
2022/04/05 07:52:56;;;;;;;1.80;0.90;;;;;;;2.85;88.02;95342.66;108117;1268;28921;-74
2022/04/05 07:55:28;;;;;;;1.00;0.70;;;;;;;2.85;87.76;95332.19;108102;1270;42299;-73
2022/04/05 07:58:01;;;;;;;1.50;1.00;;;;;;;2.77;87.84;95341.23;108140;1270;32291;-74
2022/04/05 08:00:32;;;;;;;1.90;1.00;;;;;;;2.79;87.96;95341.80;108074;1270;36005;-73
2022/04/05 08:03:04;;;;;;;1.80;1.20;;;;;;;2.81;88.15;95339.98;108084;1270;44161;-73
2022/04/05 08:05:35;;;;;;;0.90;0.90;;;;;;;2.88;88.39;95322.41;108075;1270;34244;-73
2022/04/05 08:08:06;;;;;;;2.00;1.20;;;;;;;2.94;88.29;95332.98;108089;1270;40099;-73
2022/04/05 08:10:38;;;;;;;1.10;0.80;;;;;;;3.00;88.06;95329.22;108071;1270;45411;-74
2022/04/05 08:13:09;;;;;;;1.00;0.70;;;;;;;3.04;87.99;95334.55;107957;1271;41527;-73
2022/04/05 08:15:41;;;;;;;0.90;0.80;;;;;;;3.14;88.27;95334.40;108098;1270;29069;-73
2022/04/05 08:18:12;;;;;;;1.40;0.60;;;;;;;3.20;87.75;95335.96;108089;1270;37823;-73
2022/04/05 08:20:43;;;;;;;1.20;1.00;;;;;;;3.22;87.60;95340.05;108037;1270;41770;-73
2022/04/05 08:23:15;;;;;;;2.40;0.80;;;;;;;3.33;87.56;95342.55;108040;1270;43796;-74
2022/04/05 08:25:46;;;;;;;1.00;0.60;;;;;;;3.47;87.73;95347.22;108148;1270;39755;-74
2022/04/05 08:28:17;;;;;;;2.00;1.00;;;;;;;3.51;86.98;95340.98;108065;1270;42992;-73
2022/04/05 08:30:49;;;;;;;2.90;1.20;;;;;;;3.47;86.87;95346.53;108020;1270;40804;-73
2022/04/05 08:33:20;;;;;;;1.80;1.20;;;;;;;3.49;87.06;95352.29;108050;1270;45095;-73
2022/04/05 08:35:51;;;;;;;1.10;0.60;;;;;;;3.54;86.68;95345.75;108069;1270;33311;-73
2022/04/05 08:38:22;;;;;;;0.90;0.70;;;;;;;3.47;86.47;95354.64;108043;1270;42867;-73
2022/04/05 08:40:54;;;;;;;1.10;0.90;;;;;;;3.48;86.47;95338.35;107967;1273;41880;-73
2022/04/05 08:43:27;;;;;;;1.90;0.80;;;;;;;3.61;86.84;95353.80;108084;1270;31331;-74
2022/04/05 08:46:01;;;;;;;1.30;0.90;;;;;;;3.73;86.89;95349.69;108179;1270;30708;-73
2022/04/05 08:48:35;;;;;;;0.80;0.80;;;;;;;3.86;86.58;95357.22;108025;1270;43615;-74
2022/04/05 08:51:07;;;;;;;0.60;0.60;;;;;;;4.04;85.83;95348.83;108115;1270;40811;-73
2022/04/05 08:53:41;;;;;;;0.70;0.70;;;;;;;4.17;85.04;95348.30;108035;1270;31498;-73
2022/04/05 08:56:13;;;;;;;1.60;1.00;;;;;;;4.23;84.71;95350.75;108061;1270;45173;-73
2022/04/05 08:58:44;;;;;;;1.00;0.80;;;;;;;4.40;84.61;95353.83;108004;1270;37340;-73
2022/04/05 09:01:16;;;;;;;1.20;1.00;;;;;;;4.47;84.47;95358.98;107992;1270;69278;-73
2022/04/05 09:03:47;;;;;;;1.30;0.90;;;;;;;4.66;83.75;95346.62;108077;1267;40409;-73
2022/04/05 09:06:32;;;;;;;0.50;0.50;;;;;;;4.66;82.88;95349.20;108028;1270;42578;-73
2022/04/05 09:09:12;;;;;;;1.60;1.30;;;;;;;4.77;82.95;95351.27;108070;1271;27483;-73
2022/04/05 09:11:49;;;;;;;0.70;0.70;;;;;;;4.94;82.65;95359.14;108057;1269;38789;-73
2022/04/05 09:14:25;;;;;;;0.80;0.70;;;;;;;5.08;81.77;95357.65;108048;1270;39807;-73
2022/04/05 09:17:08;;;;;;;2.00;0.90;;;;;;;5.18;82.37;95358.98;108112;1270;43657;-74
2022/04/05 09:19:42;;;;;;;1.90;1.00;;;;;;;5.41;81.71;95361.73;108128;1270;35191;-73
2022/04/05 09:22:13;;;;;;;1.10;0.60;;;;;;;5.37;80.13;95361.46;108059;1270;33940;-73
2022/04/05 09:24:45;;;;;;;1.50;1.10;;;;;;;5.25;80.53;95370.02;108080;1270;32746;-73
2022/04/05 09:27:21;;;;;;;2.10;1.10;;;;;;;5.31;80.84;95361.92;108055;1270;36716;-73
2022/04/05 09:29:53;;;;;;;1.20;0.90;;;;;;;5.25;79.69;95367.49;108055;1270;45415;-73
2022/04/05 09:32:36;;;;;;;1.20;1.10;;;;;;;4.98;80.10;95372.26;108001;1270;42434;-73
2022/04/05 09:35:09;;;;;;;0.80;0.70;;;;;;;4.97;80.60;95370.32;108122;1270;35560;-73
2022/04/05 09:37:40;;;;;;;2.30;1.30;;;;;;;4.92;80.74;95373.70;108016;1270;33583;-73
2022/04/05 09:40:23;;;;;;;2.30;1.40;;;;;;;4.87;80.40;95375.27;108097;1270;40932;-73
2022/04/05 09:43:04;;;;;;;2.70;1.20;;;;;;;4.94;81.01;95381.58;108098;1271;38134;-73
2022/04/05 09:45:50;;;;;;;1.30;0.80;;;;;;;4.94;80.27;95387.46;108055;1270;43321;-73
2022/04/05 09:48:23;;;;;;;2.00;1.40;;;;;;;4.87;80.82;95384.08;108105;1270;44668;-73
2022/04/05 09:51:03;;;;;;;1.00;0.90;;;;;;;4.98;81.02;95378.23;108115;1269;40661;-73
2022/04/05 09:53:50;;;;;;;1.20;0.90;;;;;;;5.04;81.05;95378.73;108138;1270;46032;-73
2022/04/05 09:56:22;;;;;;;2.00;1.50;;;;;;;5.25;81.09;95374.06;108116;1270;34418;-73
2022/04/05 09:58:55;;;;;;;1.20;0.80;;;;;;;5.36;80.35;95384.65;108088;1270;50826;-73
2022/04/05 10:01:28;;;;;;;1.50;1.30;;;;;;;5.42;79.82;95384.66;108172;1270;30331;-73
2022/04/05 10:04:02;;;;;;;2.20;1.30;;;;;;;5.51;80.19;95387.79;108123;1270;46107;-73
2022/04/05 10:06:35;;;;;;;1.80;1.30;;;;;;;5.62;80.61;95388.96;108137;1270;32538;-73
2022/04/05 10:09:06;;;;;;;1.70;1.40;;;;;;;5.61;80.42;95386.96;108035;1270;42317;-73
2022/04/05 10:11:39;;;;;;;2.10;1.20;;;;;;;5.57;80.70;95387.73;108076;1270;41694;-73
2022/04/05 10:14:13;;;;;;;1.60;1.00;;;;;;;5.62;81.30;95384.53;107982;1273;31611;-73
2022/04/05 10:16:48;;;;;;;1.60;0.90;;;;;;;5.54;80.08;95386.77;108260;1269;42060;-73
2022/04/05 10:19:21;;;;;;;1.00;0.80;;;;;;;5.46;80.27;95394.45;108115;1270;41675;-73
2022/04/05 10:21:52;;;;;;;0.90;0.70;;;;;;;5.49;80.21;95393.84;108041;1270;49699;-73
2022/04/05 10:24:24;;;;;;;2.10;1.00;;;;;;;5.47;80.89;95401.16;107982;1270;42458;-73
2022/04/05 10:26:55;;;;;;;2.30;1.10;;;;;;;5.44;80.90;95401.67;108079;1270;40318;-74
2022/04/05 10:29:28;;;;;;;2.00;1.00;;;;;;;5.34;80.90;95407.89;108080;1270;38296;-73
2022/04/05 10:32:08;;;;;;;1.50;0.90;;;;;;;5.29;80.80;95411.13;108086;1270;28146;-73
2022/04/05 10:34:42;;;;;;;;;;;;;;;5.29;81.48;95414.92;107986;1273;38372;-73
2022/04/05 10:37:17;;;;;;;1.10;0.80;;;;;;;5.20;81.10;95409.98;108084;1270;32938;-73
2022/04/05 10:40:17;;;;;;;1.00;0.90;;;;;;;4.93;81.11;95422.29;108084;1270;47429;-73
2022/04/05 10:42:53;;;;;;;0.80;0.70;;;;;;;4.75;81.67;95418.70;108079;1270;43770;-73
2022/04/05 10:45:28;;;;;;;1.90;1.40;;;;;;;4.73;82.20;95416.50;108147;1270;38226;-73
2022/04/05 10:48:01;;;;;;;1.00;0.60;;;;;;;4.88;83.12;95417.43;108176;1270;26609;-73
2022/04/05 10:50:35;;;;;;;1.70;0.90;;;;;;;4.94;82.68;95416.24;107954;1271;43440;-73
2022/04/05 10:53:20;;;;;;;0.50;0.50;;;;;;;4.89;82.32;95418.73;108123;1270;42771;-74
2022/04/05 10:56:18;;;;;;;1.90;0.90;;;;;;;4.85;82.37;95417.70;108135;1270;40608;-73
2022/04/05 10:59:18;;;;;;;2.10;1.30;;;;;;;4.91;82.92;95419.98;108107;1270;30980;-74
2022/04/05 11:01:50;;;;;;;0.70;0.50;;;;;;;5.08;83.19;95411.02;108039;1270;40470;-73
2022/04/05 11:04:35;;;;;;;0.90;0.70;;;;;;;5.03;82.27;95411.52;108137;1270;32261;-73
2022/04/05 11:07:15;;;;;;;1.20;1.10;;;;;;;4.93;82.29;95415.36;108104;1270;41523;-73
2022/04/05 11:09:54;;;;;;;0.80;0.80;;;;;;;4.87;82.43;95426.10;108096;1270;29274;-74
2022/04/05 11:12:28;;;;;;;1.80;0.40;;;;;;;4.92;82.73;95422.77;108060;1270;30585;-73
2022/04/05 11:15:03;;;;;;;4.60;1.40;;;;;;;4.99;82.69;95423.04;108166;1269;40089;-73
2022/04/05 11:17:38;;;;;;;1.30;0.60;;;;;;;5.07;83.20;95433.39;108125;1270;42534;-74
2022/04/05 11:20:14;;;;;;;0.80;0.50;;;;;;;5.04;81.92;95430.52;108068;1270;41650;-74
2022/04/05 11:22:45;;;;;;;0.90;0.60;;;;;;;4.94;81.51;95430.48;108064;1270;43136;-74
2022/04/05 11:25:28;;;;;;;1.00;0.20;;;;;;;4.89;81.96;95434.91;108074;1270;85381;-74
2022/04/05 11:28:12;;;;;;;1.80;1.30;;;;;;;4.83;81.86;95442.92;108011;1273;35537;-73
2022/04/05 11:30:54;;;;;;;1.00;0.80;;;;;;;4.91;82.08;95438.89;108054;1270;45785;-74
2022/04/05 11:33:39;;;;;;;1.60;0.60;;;;;;;4.81;81.06;95437.74;108047;1270;79207;-73
2022/04/05 11:36:13;;;;;;;0.80;0.70;;;;;;;4.78;81.09;95441.73;108135;1271;42213;-74
2022/04/05 11:38:47;;;;;;;1.20;0.90;;;;;;;4.83;80.91;95442.57;108071;1270;43528;-74
2022/04/05 11:41:24;;;;;;;1.50;1.20;;;;;;;4.82;80.66;95447.04;108029;1270;33521;-74
2022/04/05 11:43:57;;;;;;;1.80;1.10;;;;;;;4.78;80.12;95443.73;108151;1270;30273;-73
2022/04/05 11:46:30;;;;;;;1.70;1.10;;;;;;;4.76;80.41;95452.55;108100;1270;41444;-73
2022/04/05 11:49:04;;;;;;;1.20;1.10;;;;;;;4.80;80.48;95463.11;108119;1270;33753;-75
2022/04/05 11:51:37;;;;;;;1.90;1.70;;;;;;;4.85;80.78;95463.82;108090;1270;39496;-74
2022/04/05 11:54:10;;;;;;;1.40;1.20;;;;;;;4.86;80.59;95472.64;108070;1270;31950;-74
2022/04/05 11:56:42;;;;;;;1.50;0.90;;;;;;;4.82;79.88;95467.41;108108;1270;44275;-74
2022/04/05 11:59:15;;;;;;;1.70;0.80;;;;;;;4.71;78.95;95460.10;108089;1270;52022;-74